createdAt,value
2017-12-03T00:00:56.041Z,34.52
2017-12-03T00:03:26.674Z,32.50
2017-12-03T00:05:55.584Z,31.57
2017-12-03T00:08:25.496Z,31.85
2017-12-03T00:10:55.499Z,29.04
2017-12-03T00:13:24.656Z,29.45
2017-12-03T00:15:54.089Z,35.08
2017-12-03T00:18:23.126Z,32.28
2017-12-03T00:20:51.375Z,32.10
2017-12-03T00:23:19.663Z,31.36
2017-12-03T00:25:47.915Z,33.96
2017-12-03T00:28:16.224Z,31.42
2017-12-03T00:30:44.492Z,34.26
2017-12-03T00:33:12.758Z,28.50
2017-12-03T00:35:41.067Z,30.58
2017-12-03T00:38:09.315Z,31.28
2017-12-03T00:40:37.579Z,33.12
2017-12-03T00:43:05.103Z,28.47
2017-12-03T00:45:33.359Z,28.03
2017-12-03T00:48:02.559Z,30.65
2017-12-03T00:50:30.824Z,28.90
2017-12-03T00:52:59.134Z,29.22
2017-12-03T00:55:27.390Z,29.93
2017-12-03T00:57:55.560Z,29.43
2017-12-03T01:00:25.716Z,28.80
2017-12-03T01:02:55.576Z,28.17
2017-12-03T01:05:25.714Z,24.88
2017-12-03T01:07:57.575Z,28.38
2017-12-03T01:10:26.787Z,27.28
2017-12-03T01:12:55.557Z,30.23
2017-12-03T01:15:24.790Z,25.15
2017-12-03T01:17:55.527Z,27.98
2017-12-03T01:20:24.667Z,28.08
2017-12-03T01:22:54.078Z,24.62
2017-12-03T01:25:23.560Z,25.14
2017-12-03T01:27:51.853Z,24.84
2017-12-03T01:30:20.125Z,23.86
2017-12-03T01:32:48.426Z,25.50
2017-12-03T01:35:16.687Z,23.90
2017-12-03T01:37:44.965Z,24.17
2017-12-03T01:40:13.255Z,24.90
2017-12-03T01:42:41.511Z,24.94
2017-12-03T01:45:09.779Z,23.50
2017-12-03T01:47:38.057Z,25.32
2017-12-03T01:50:06.360Z,24.37
2017-12-03T01:52:34.671Z,25.22
2017-12-03T01:55:02.945Z,23.70
2017-12-03T01:57:31.261Z,22.78
2017-12-03T01:59:59.527Z,24.14
2017-12-03T02:02:27.822Z,24.50
2017-12-03T02:04:56.252Z,22.90
2017-12-03T02:07:26.299Z,24.30
2017-12-03T02:09:57.975Z,22.83
2017-12-03T02:12:26.783Z,23.48
2017-12-03T02:14:55.550Z,23.18
2017-12-03T02:17:25.708Z,24.30
2017-12-03T02:19:55.605Z,22.94
2017-12-03T02:22:25.614Z,23.24
2017-12-03T02:24:55.543Z,24.14
2017-12-03T02:27:25.632Z,22.48
2017-12-03T02:29:55.594Z,22.64
2017-12-03T02:32:25.555Z,25.20
2017-12-03T02:34:55.546Z,24.36
2017-12-03T02:37:25.675Z,21.65
2017-12-03T02:39:55.551Z,23.66
2017-12-03T02:42:25.624Z,24.38
2017-12-03T02:44:55.661Z,25.93
2017-12-03T02:47:25.652Z,21.92
2017-12-03T02:49:55.548Z,23.83
2017-12-03T02:52:25.703Z,23.07
2017-12-03T02:54:55.585Z,22.84
2017-12-03T02:57:25.549Z,22.43
2017-12-03T02:59:55.555Z,25.40
2017-12-03T03:02:25.613Z,23.13
2017-12-03T03:04:55.560Z,24.82
2017-12-03T03:07:25.668Z,25.73
2017-12-03T03:09:55.576Z,23.40
2017-12-03T03:12:25.562Z,23.25
2017-12-03T03:14:55.551Z,22.22
2017-12-03T03:17:25.567Z,23.80
2017-12-03T03:19:55.570Z,23.18
2017-12-03T03:22:25.182Z,25.53
2017-12-03T03:24:53.437Z,23.22
2017-12-03T03:27:21.697Z,25.72
2017-12-03T03:29:49.982Z,23.24
2017-12-03T03:32:18.255Z,25.78
2017-12-03T03:34:46.543Z,23.22
2017-12-03T03:37:14.802Z,23.30
2017-12-03T03:39:43.090Z,24.10
2017-12-03T03:42:11.346Z,21.93
2017-12-03T03:44:39.648Z,25.20
2017-12-03T03:47:07.907Z,22.45
2017-12-03T03:49:36.166Z,25.13
2017-12-03T03:52:04.454Z,22.40
2017-12-03T03:54:35.641Z,24.85
2017-12-03T03:57:03.926Z,21.52
2017-12-03T03:59:32.174Z,23.92
2017-12-03T04:02:00.470Z,24.47
2017-12-03T04:04:28.758Z,25.32
2017-12-03T04:06:57.971Z,23.35
2017-12-03T04:09:26.255Z,22.00
2017-12-03T04:11:55.119Z,22.25
2017-12-03T04:14:24.330Z,22.15
2017-12-03T04:16:52.590Z,23.67
2017-12-03T04:19:20.874Z,24.93
2017-12-03T04:21:49.138Z,22.77
2017-12-03T04:24:17.422Z,22.82
2017-12-03T04:26:45.714Z,23.02
2017-12-03T04:29:13.958Z,23.26
2017-12-03T04:31:42.245Z,23.12
2017-12-03T04:34:10.510Z,23.60
2017-12-03T04:36:38.794Z,23.72
2017-12-03T04:39:07.045Z,22.83
2017-12-03T04:41:35.341Z,22.72
2017-12-03T04:44:03.593Z,22.90
2017-12-03T04:46:31.878Z,22.42
2017-12-03T04:49:01.067Z,24.47
2017-12-03T04:51:29.323Z,22.27
2017-12-03T04:53:57.598Z,24.76
2017-12-03T04:56:26.554Z,25.43
2017-12-03T04:58:54.842Z,20.15
2017-12-03T05:01:24.336Z,21.95
2017-12-03T05:03:52.598Z,21.98
2017-12-03T05:06:20.890Z,24.17
2017-12-03T05:08:49.154Z,20.50
2017-12-03T05:11:17.405Z,25.00
2017-12-03T05:13:45.698Z,20.72
2017-12-03T05:16:13.958Z,23.00
2017-12-03T05:18:42.246Z,22.68
2017-12-03T05:21:10.510Z,20.60
2017-12-03T05:23:38.787Z,23.38
2017-12-03T05:26:07.069Z,22.68
2017-12-03T05:28:35.326Z,21.43
2017-12-03T05:31:03.662Z,21.85
2017-12-03T05:33:31.906Z,21.72
2017-12-03T05:36:00.166Z,21.48
2017-12-03T05:38:28.450Z,22.26
2017-12-03T05:40:57.274Z,20.52
2017-12-03T05:43:24.802Z,23.24
2017-12-03T05:45:53.522Z,22.23
2017-12-03T05:48:21.778Z,21.34
2017-12-03T05:50:50.072Z,20.54
2017-12-03T05:53:17.558Z,20.50
2017-12-03T05:55:46.742Z,21.52
2017-12-03T05:58:15.022Z,19.78
2017-12-03T06:00:43.271Z,21.52
2017-12-03T06:03:11.554Z,19.52
2017-12-03T06:05:39.826Z,19.92
2017-12-03T06:08:08.074Z,19.56
2017-12-03T06:10:36.285Z,19.50
2017-12-03T06:13:04.538Z,19.52
2017-12-03T06:15:32.822Z,20.86
2017-12-03T06:18:01.115Z,18.72
2017-12-03T06:20:28.607Z,21.08
2017-12-03T06:22:57.901Z,18.12
2017-12-03T06:25:26.188Z,18.70
2017-12-03T06:27:55.616Z,19.78
2017-12-03T06:30:25.675Z,20.56
2017-12-03T06:32:56.463Z,19.75
2017-12-03T06:35:24.745Z,20.68
2017-12-03T06:37:54.535Z,19.85
2017-12-03T06:40:24.053Z,19.87
2017-12-03T06:42:52.977Z,18.08
2017-12-03T06:45:21.254Z,19.14
2017-12-03T06:47:48.782Z,19.50
2017-12-03T06:50:17.069Z,18.33
2017-12-03T06:52:45.342Z,18.98
2017-12-03T06:55:13.618Z,20.34
2017-12-03T06:57:41.879Z,19.47
2017-12-03T07:00:09.402Z,21.02
2017-12-03T07:02:37.659Z,18.58
2017-12-03T07:05:05.948Z,20.48
2017-12-03T07:07:34.243Z,20.20
2017-12-03T07:10:02.499Z,19.48
2017-12-03T07:12:30.756Z,19.54
2017-12-03T07:14:59.042Z,18.12
2017-12-03T07:17:27.298Z,20.06
2017-12-03T07:19:54.799Z,19.08
2017-12-03T07:22:24.450Z,19.38
2017-12-03T07:24:53.722Z,19.92
2017-12-03T07:27:21.985Z,16.10
2017-12-03T07:29:50.271Z,18.36
2017-12-03T07:32:18.519Z,18.04
2017-12-03T07:34:46.809Z,20.18
2017-12-03T07:37:15.061Z,21.64
2017-12-03T07:39:43.318Z,19.88
2017-12-03T07:42:11.602Z,21.60
2017-12-03T07:44:39.855Z,21.75
2017-12-03T07:47:08.146Z,21.30
2017-12-03T07:49:36.401Z,19.60
2017-12-03T07:52:04.699Z,20.02
2017-12-03T07:54:32.953Z,20.00
2017-12-03T07:57:01.218Z,19.55
2017-12-03T07:59:30.462Z,19.73
2017-12-03T08:01:58.765Z,22.80
2017-12-03T08:04:26.290Z,20.82
2017-12-03T08:06:54.546Z,19.85
2017-12-03T08:09:23.914Z,19.48
2017-12-03T08:11:52.171Z,20.35
2017-12-03T08:14:20.425Z,20.58
2017-12-03T08:16:48.695Z,19.20
2017-12-03T08:19:20.664Z,20.46
2017-12-03T08:21:48.958Z,20.93
2017-12-03T08:24:17.258Z,21.07
2017-12-03T08:26:45.514Z,18.87
2017-12-03T08:29:13.011Z,21.32
2017-12-03T08:31:41.293Z,20.40
2017-12-03T08:34:09.550Z,20.88
2017-12-03T08:36:37.838Z,22.83
2017-12-03T08:39:06.127Z,19.92
2017-12-03T08:41:34.385Z,20.08
2017-12-03T08:44:02.662Z,20.98
2017-12-03T08:46:30.959Z,19.52
2017-12-03T08:48:58.455Z,19.48
2017-12-03T08:51:28.001Z,19.90
2017-12-03T08:53:56.287Z,20.04
2017-12-03T08:56:30.663Z,21.80
2017-12-03T08:58:58.961Z,19.75
2017-12-03T09:01:27.215Z,19.88
2017-12-03T09:03:54.749Z,19.46
2017-12-03T09:06:24.058Z,22.00
2017-12-03T09:08:53.934Z,20.40
2017-12-03T09:11:23.541Z,19.85
2017-12-03T09:13:51.854Z,22.26
2017-12-03T09:16:20.138Z,21.46
2017-12-03T09:18:47.663Z,19.83
2017-12-03T09:21:15.949Z,18.13
2017-12-03T09:23:44.205Z,21.28
2017-12-03T09:26:12.502Z,19.78
2017-12-03T09:28:40.763Z,22.66
2017-12-03T09:31:09.022Z,19.08
2017-12-03T09:33:36.531Z,20.17
2017-12-03T09:36:04.023Z,20.38
2017-12-03T09:38:32.312Z,19.80
2017-12-03T09:41:00.578Z,19.32
2017-12-03T09:43:28.866Z,20.28
2017-12-03T09:45:57.686Z,19.58
2017-12-03T09:48:26.939Z,20.72
2017-12-03T09:50:55.708Z,22.15
2017-12-03T09:53:25.862Z,20.96
2017-12-03T09:55:54.698Z,18.64
2017-12-03T09:58:24.177Z,19.27
2017-12-03T10:00:53.252Z,21.68
2017-12-03T10:03:21.534Z,20.55
2017-12-03T10:05:49.781Z,18.97
2017-12-03T10:08:18.063Z,18.97
2017-12-03T10:10:46.352Z,21.78
2017-12-03T10:13:14.634Z,20.73
2017-12-03T10:15:42.925Z,20.02
2017-12-03T10:18:11.214Z,19.57
2017-12-03T10:20:39.470Z,17.20
2017-12-03T10:23:07.762Z,20.02
2017-12-03T10:25:36.015Z,17.32
2017-12-03T10:28:04.284Z,19.28
2017-12-03T10:30:32.570Z,20.67
2017-12-03T10:33:00.879Z,19.98
2017-12-03T10:35:29.138Z,17.72
2017-12-03T10:38:06.673Z,18.90
2017-12-03T10:40:34.941Z,20.22
2017-12-03T10:43:03.194Z,18.80
2017-12-03T10:45:31.482Z,20.72
2017-12-03T10:47:59.736Z,21.20
2017-12-03T10:50:28.026Z,18.98
2017-12-03T10:52:56.604Z,21.10
2017-12-03T10:55:24.937Z,20.18
2017-12-03T10:57:53.794Z,19.78
2017-12-03T11:00:26.657Z,20.70
2017-12-03T11:02:54.968Z,22.02
2017-12-03T11:05:23.785Z,21.32
2017-12-03T11:07:52.071Z,21.38
2017-12-03T11:10:20.330Z,20.17
2017-12-03T11:12:48.619Z,19.27
2017-12-03T11:15:16.874Z,19.13
2017-12-03T11:17:48.201Z,22.90
2017-12-03T11:20:16.482Z,20.68
2017-12-03T11:22:44.761Z,20.83
2017-12-03T11:25:13.054Z,18.30
2017-12-03T11:27:40.544Z,21.25
2017-12-03T11:30:08.806Z,21.08
2017-12-03T11:32:37.102Z,19.43
2017-12-03T11:35:05.355Z,20.87
2017-12-03T11:37:36.914Z,25.07
2017-12-03T11:40:05.175Z,21.45
2017-12-03T11:42:33.428Z,24.90
2017-12-03T11:45:01.717Z,21.67
2017-12-03T11:47:29.978Z,20.38
2017-12-03T11:49:58.257Z,21.20
2017-12-03T11:52:27.240Z,23.90
2017-12-03T11:54:55.798Z,22.82
2017-12-03T11:57:25.797Z,23.12
2017-12-03T11:59:54.567Z,22.18
2017-12-03T12:02:23.495Z,23.27
2017-12-03T12:04:51.746Z,24.26
2017-12-03T12:07:20.030Z,22.46
2017-12-03T12:09:48.282Z,23.78
2017-12-03T12:12:16.586Z,24.62
2017-12-03T12:14:44.875Z,19.60
2017-12-03T12:17:13.152Z,20.06
2017-12-03T12:19:41.405Z,21.70
2017-12-03T12:22:09.704Z,22.30
2017-12-03T12:24:37.956Z,22.96
2017-12-03T12:27:06.242Z,21.02
2017-12-03T12:29:34.530Z,21.66
2017-12-03T12:32:02.811Z,20.50
2017-12-03T12:34:31.122Z,21.54
2017-12-03T12:36:59.402Z,21.14
2017-12-03T12:39:27.662Z,21.05
2017-12-03T12:41:56.582Z,21.50
2017-12-03T12:44:24.871Z,20.20
2017-12-03T12:46:54.203Z,21.00
2017-12-03T12:49:23.144Z,20.18
2017-12-03T12:51:51.420Z,26.57
2017-12-03T12:54:19.674Z,21.62
2017-12-03T12:56:47.963Z,19.68
2017-12-03T12:59:16.217Z,21.84
2017-12-03T13:01:54.425Z,18.06
2017-12-03T13:04:22.678Z,19.86
2017-12-03T13:06:50.193Z,20.82
2017-12-03T13:09:18.479Z,21.22
2017-12-03T13:11:46.735Z,18.90
2017-12-03T13:14:15.073Z,20.50
2017-12-03T13:16:43.282Z,23.10
2017-12-03T13:19:11.566Z,21.98
2017-12-03T13:21:39.846Z,23.06
2017-12-03T13:24:08.103Z,23.12
2017-12-03T13:26:36.390Z,20.28
2017-12-03T13:29:04.646Z,20.96
2017-12-03T13:31:32.930Z,22.08
2017-12-03T13:34:01.174Z,22.12
2017-12-03T13:36:29.454Z,26.26
2017-12-03T13:38:57.703Z,28.76
2017-12-03T13:41:26.390Z,23.14
2017-12-03T13:43:54.633Z,20.88
2017-12-03T13:46:23.938Z,20.78
2017-12-03T13:48:52.221Z,23.52
2017-12-03T13:51:20.472Z,19.36
2017-12-03T13:53:48.738Z,20.52
2017-12-03T13:56:17.038Z,19.54
2017-12-03T13:58:45.293Z,20.54
2017-12-03T14:01:13.550Z,20.82
2017-12-03T14:03:41.843Z,17.66
2017-12-03T14:06:10.096Z,19.32
2017-12-03T14:08:38.382Z,19.26
2017-12-03T14:11:06.634Z,22.90
2017-12-03T14:13:34.151Z,19.15
2017-12-03T14:16:02.430Z,19.52
2017-12-03T14:18:30.678Z,17.18
2017-12-03T14:20:58.958Z,22.02
2017-12-03T14:23:28.510Z,21.63
2017-12-03T14:25:57.679Z,18.70
2017-12-03T14:28:26.630Z,21.56
2017-12-03T14:30:54.894Z,18.96
2017-12-03T14:33:24.446Z,18.24
2017-12-03T14:35:53.780Z,20.46
2017-12-03T14:38:22.019Z,19.50
2017-12-03T14:40:50.302Z,18.84
2017-12-03T14:43:18.558Z,17.82
2017-12-03T14:45:46.842Z,17.84
2017-12-03T14:48:15.099Z,18.68
2017-12-03T14:50:43.395Z,18.94
2017-12-03T14:53:11.658Z,19.78
2017-12-03T14:55:39.906Z,21.14
2017-12-03T14:58:08.187Z,19.82
2017-12-03T15:00:36.470Z,21.26
2017-12-03T15:03:04.733Z,21.34
2017-12-03T15:05:33.030Z,22.68
2017-12-03T15:08:01.323Z,22.08
2017-12-03T15:10:29.577Z,21.58
2017-12-03T15:12:57.866Z,19.66
2017-12-03T15:15:25.793Z,20.04
2017-12-03T15:17:54.678Z,20.08
2017-12-03T15:20:23.607Z,18.64
2017-12-03T15:22:51.858Z,22.04
2017-12-03T15:25:20.151Z,17.08
2017-12-03T15:27:48.398Z,19.94
2017-12-03T15:30:16.686Z,17.18
2017-12-03T15:32:44.972Z,17.92
2017-12-03T15:35:13.254Z,17.78
2017-12-03T15:37:44.323Z,17.54
2017-12-03T15:40:12.570Z,19.00
2017-12-03T15:42:40.846Z,20.34
2017-12-03T15:45:09.102Z,23.46
2017-12-03T15:47:36.618Z,21.12
2017-12-03T15:50:04.875Z,19.64
2017-12-03T15:52:33.161Z,20.88
2017-12-03T15:55:01.414Z,20.56
2017-12-03T15:57:29.674Z,21.30
2017-12-03T15:59:57.742Z,22.24
2017-12-03T16:02:27.474Z,20.76
2017-12-03T16:04:56.560Z,23.22
2017-12-03T16:07:25.779Z,23.46
2017-12-03T16:09:54.646Z,20.66
2017-12-03T16:12:23.847Z,22.60
2017-12-03T16:14:52.146Z,23.14
2017-12-03T16:17:19.630Z,22.10
2017-12-03T16:19:47.886Z,22.82
2017-12-03T16:22:16.167Z,21.68
2017-12-03T16:24:44.451Z,20.90
2017-12-03T16:27:12.706Z,23.46
2017-12-03T16:29:40.954Z,21.40
2017-12-03T16:32:09.247Z,23.40
2017-12-03T16:34:37.526Z,28.04
2017-12-03T16:37:05.831Z,23.94
2017-12-03T16:39:34.081Z,21.66
2017-12-03T16:42:02.335Z,24.04
2017-12-03T16:44:30.623Z,23.26
2017-12-03T16:46:58.126Z,25.26
2017-12-03T16:49:26.409Z,23.68
2017-12-03T16:51:54.663Z,25.82
2017-12-03T16:54:24.050Z,26.64
2017-12-03T16:56:53.111Z,24.96
2017-12-03T16:59:21.357Z,25.46
2017-12-03T17:01:49.619Z,24.32
2017-12-03T17:04:17.150Z,25.74
2017-12-03T17:06:45.400Z,25.58
2017-12-03T17:09:12.878Z,27.02
2017-12-03T17:11:41.157Z,24.72
2017-12-03T17:14:09.445Z,23.52
2017-12-03T17:16:37.708Z,24.94
2017-12-03T17:19:05.962Z,27.28
2017-12-03T17:21:34.254Z,24.20
2017-12-03T17:24:01.766Z,24.22
2017-12-03T17:26:30.022Z,24.66
2017-12-03T17:28:58.306Z,30.28
2017-12-03T17:31:27.070Z,26.70
2017-12-03T17:33:55.841Z,23.96
2017-12-03T17:36:24.792Z,24.56
2017-12-03T17:38:53.677Z,24.78
2017-12-03T17:41:21.918Z,26.88
2017-12-03T17:43:50.198Z,25.42
2017-12-03T17:46:18.446Z,26.54
2017-12-03T17:48:46.731Z,27.76
2017-12-03T17:53:33.842Z,28.32
2017-12-03T17:56:02.097Z,29.46
2017-12-03T17:58:30.391Z,27.32
2017-12-03T18:00:58.638Z,28.80
2017-12-03T18:03:27.818Z,27.46
2017-12-03T18:05:56.837Z,27.40
2017-12-03T18:08:25.070Z,27.72
2017-12-03T18:10:54.327Z,27.14
2017-12-03T18:13:23.404Z,27.50
2017-12-03T18:15:51.686Z,24.88
2017-12-03T18:18:19.934Z,29.06
2017-12-03T18:20:48.264Z,27.02
2017-12-03T18:23:16.497Z,26.62
2017-12-03T18:25:44.774Z,29.38
2017-12-03T18:28:13.079Z,25.60
2017-12-03T18:30:41.335Z,30.22
2017-12-03T18:33:09.582Z,26.76
2017-12-03T18:35:37.884Z,28.92
2017-12-03T18:38:05.398Z,27.64
2017-12-03T18:40:32.886Z,26.68
2017-12-03T18:43:01.225Z,27.72
2017-12-03T18:45:29.482Z,27.98
2017-12-03T18:47:57.898Z,26.04
2017-12-03T18:50:27.222Z,30.14
2017-12-03T18:52:55.869Z,25.96
2017-12-03T18:55:24.977Z,27.78
2017-12-03T18:57:53.894Z,26.84
2017-12-03T19:00:22.187Z,29.28
2017-12-03T19:02:50.443Z,28.32
2017-12-03T19:05:18.730Z,31.36
2017-12-03T19:07:46.982Z,30.26
2017-12-03T19:10:15.267Z,30.68
2017-12-03T19:12:43.519Z,29.02
2017-12-03T19:15:11.032Z,31.74
2017-12-03T19:17:39.311Z,30.00
2017-12-03T19:20:07.567Z,29.16
2017-12-03T19:22:35.850Z,30.90
2017-12-03T19:25:04.102Z,30.74
2017-12-03T19:27:32.390Z,33.34
2017-12-03T19:30:00.642Z,31.92
2017-12-03T19:32:28.928Z,34.88
2017-12-03T19:34:58.028Z,31.14
2017-12-03T19:37:27.177Z,31.62
2017-12-03T19:39:55.922Z,31.26
2017-12-03T19:42:25.073Z,33.12
2017-12-03T19:44:54.012Z,32.78
2017-12-03T19:47:23.454Z,32.92
2017-12-03T19:49:51.743Z,34.48
2017-12-03T19:52:20.021Z,33.26
2017-12-03T19:54:48.375Z,32.92
2017-12-03T19:57:15.859Z,36.08
2017-12-03T19:59:44.143Z,35.22
2017-12-03T20:02:12.437Z,34.84
2017-12-03T20:04:39.958Z,32.62
2017-12-03T20:07:08.281Z,37.14
2017-12-03T20:09:36.562Z,37.04
2017-12-03T20:12:04.831Z,31.40
2017-12-03T20:14:33.107Z,33.84
2017-12-03T20:17:01.406Z,33.04
2017-12-03T20:19:29.695Z,34.02
2017-12-03T20:21:57.985Z,33.52
2017-12-03T20:24:26.966Z,35.70
2017-12-03T20:26:55.923Z,35.52
2017-12-03T20:29:25.875Z,32.64
2017-12-03T20:31:55.101Z,33.00
2017-12-03T20:34:23.029Z,35.20
2017-12-03T20:36:51.278Z,35.56
2017-12-03T20:39:19.573Z,32.50
2017-12-03T20:41:47.826Z,32.46
2017-12-03T20:44:16.125Z,34.28
2017-12-03T20:46:44.378Z,32.16
2017-12-03T20:49:12.659Z,30.22
2017-12-03T20:51:40.943Z,34.18
2017-12-03T20:54:09.199Z,32.78
2017-12-03T20:56:37.446Z,32.64
2017-12-03T20:59:05.726Z,30.74
2017-12-03T21:01:34.008Z,31.64
2017-12-03T21:04:02.298Z,31.70
2017-12-03T21:06:30.546Z,29.94
2017-12-03T21:08:58.803Z,29.88
2017-12-03T21:11:28.010Z,28.16
2017-12-03T21:13:56.820Z,28.88
2017-12-03T21:16:25.084Z,29.80
2017-12-03T21:18:54.307Z,30.96
2017-12-03T21:21:22.614Z,29.50
2017-12-03T21:23:50.900Z,31.80
2017-12-03T21:26:19.187Z,29.12
2017-12-03T21:28:47.446Z,30.80
2017-12-03T21:31:15.733Z,32.76
2017-12-03T21:33:44.030Z,31.64
2017-12-03T21:36:12.285Z,31.98
2017-12-03T21:38:39.774Z,29.42
2017-12-03T21:41:08.059Z,28.68
2017-12-03T21:43:36.314Z,29.46
2017-12-03T21:46:04.607Z,28.94
2017-12-03T21:48:32.858Z,31.86
2017-12-03T21:51:01.112Z,28.16
2017-12-03T21:53:29.493Z,29.36
2017-12-03T21:55:57.750Z,29.02
2017-12-03T21:58:27.491Z,31.28
2017-12-03T22:00:56.906Z,31.70
2017-12-03T22:03:25.158Z,30.26
2017-12-03T22:05:54.296Z,28.34
2017-12-03T22:08:23.196Z,31.28
2017-12-03T22:10:51.478Z,29.38
2017-12-03T22:13:19.735Z,31.58
2017-12-03T22:15:48.031Z,30.22
2017-12-03T22:18:16.290Z,31.38
2017-12-03T22:20:44.542Z,28.20
2017-12-03T22:23:12.831Z,31.02
2017-12-03T22:25:41.082Z,28.62
2017-12-03T22:28:09.350Z,28.08
2017-12-03T22:30:37.625Z,31.56
2017-12-03T22:33:05.883Z,27.86
2017-12-03T22:35:34.174Z,27.74
2017-12-03T22:38:02.422Z,28.76
2017-12-03T22:40:30.682Z,29.12
2017-12-03T22:42:58.978Z,28.68
2017-12-03T22:45:28.446Z,28.06
2017-12-03T22:47:57.466Z,29.30
2017-12-03T22:50:26.987Z,29.74
2017-12-03T22:52:58.664Z,29.68
2017-12-03T22:55:28.203Z,27.54
2017-12-03T22:57:56.453Z,26.32
2017-12-03T23:00:33.605Z,27.46
2017-12-03T23:03:01.858Z,29.50
2017-12-03T23:05:30.934Z,30.82
2017-12-03T23:07:59.194Z,28.68
2017-12-03T23:10:28.093Z,28.84
2017-12-03T23:12:57.314Z,29.06
2017-12-03T23:15:25.963Z,32.18
2017-12-03T23:17:56.686Z,28.92
2017-12-03T23:20:24.967Z,33.42
2017-12-03T23:22:54.047Z,32.84
2017-12-03T23:25:23.034Z,29.56
2017-12-03T23:27:51.319Z,32.60
2017-12-03T23:30:19.570Z,33.70
2017-12-03T23:32:47.846Z,31.16
2017-12-03T23:35:16.130Z,34.18
2017-12-03T23:37:45.070Z,32.56
2017-12-03T23:40:13.351Z,31.44
2017-12-03T23:42:41.610Z,31.62
2017-12-03T23:45:09.862Z,33.74
2017-12-03T23:47:38.149Z,33.22
2017-12-03T23:50:06.410Z,30.92
2017-12-03T23:52:35.014Z,33.42
2017-12-03T23:55:03.262Z,30.66
2017-12-03T23:57:31.513Z,32.48
2017-12-03T23:59:59.807Z,29.78
